Time;durP1;ratioP1;P1;durP2;ratioP2;P2;SDS_P1;SDS_P2;PMS_P1;PMS_P2;Temp;Humidity;BMP_temperature;BMP_pressure;BME280_temperature;BME280_humidity;BME280_pressure;Samples;Min_cycle;Max_cycle;Signal;HPM_P1;HPM_P2
2022/04/02 00:01:51;;;;;;;3.08;1.10;;;1.10;99.00;;;;;;5085748;28;20115;-38
2022/04/02 00:04:16;;;;;;;4.68;1.70;;;1.00;99.40;;;;;;5082624;28;20484;-40
2022/04/02 00:06:42;;;;;;;3.67;1.67;;;1.00;99.70;;;;;;5083018;28;20165;-37
2022/04/02 00:09:08;;;;;;;3.70;1.17;;;1.00;99.90;;;;;;5083932;28;20040;-37
2022/04/02 00:11:33;;;;;;;4.40;1.10;;;0.90;99.90;;;;;;5082161;28;20625;-38
2022/04/02 00:13:59;;;;;;;2.75;1.42;;;0.90;99.90;;;;;;5082125;28;20460;-38
2022/04/02 00:16:25;;;;;;;3.20;1.48;;;0.90;99.90;;;;;;5082347;28;20473;-37
2022/04/02 00:18:51;;;;;;;3.47;1.23;;;0.90;99.90;;;;;;5082524;28;20035;-38
2022/04/02 00:21:17;;;;;;;2.72;1.05;;;0.90;99.60;;;;;;5087145;28;20477;-38
2022/04/02 00:23:46;;;;;;;3.15;1.13;;;1.00;99.40;;;;;;5087687;28;20401;-38
2022/04/02 00:26:13;;;;;;;5.30;1.48;;;1.00;99.20;;;;;;5083460;28;20077;-38
2022/04/02 00:28:40;;;;;;;5.13;1.52;;;1.00;98.80;;;;;;5073705;28;20130;-37
2022/04/02 00:31:10;;;;;;;7.25;1.63;;;1.00;98.50;;;;;;5084174;28;20076;-38
2022/04/02 00:33:36;;;;;;;6.55;1.50;;;1.10;98.40;;;;;;5080848;28;20148;-38
2022/04/02 00:36:03;;;;;;;6.90;1.92;;;1.10;98.30;;;;;;5081734;28;20507;-38
2022/04/02 00:38:29;;;;;;;4.10;1.33;;;1.10;98.10;;;;;;5084252;28;20135;-37
2022/04/02 00:40:54;;;;;;;4.15;1.20;;;1.10;98.10;;;;;;5080561;28;20183;-38
2022/04/02 00:43:22;;;;;;;4.85;1.58;;;1.10;97.80;;;;;;5080034;28;20044;-37
2022/04/02 00:45:48;;;;;;;4.20;1.85;;;1.10;97.60;;;;;;5080563;28;20066;-38
2022/04/02 00:48:14;;;;;;;8.82;1.65;;;1.10;97.40;;;;;;5082569;28;20488;-37
2022/04/02 00:50:40;;;;;;;5.80;1.77;;;1.20;97.00;;;;;;5084170;28;20039;-38
2022/04/02 00:53:06;;;;;;;3.92;1.75;;;1.20;97.00;;;;;;5083090;28;20075;-37
2022/04/02 00:55:32;;;;;;;5.68;1.52;;;1.20;97.00;;;;;;5082960;28;20032;-37
2022/04/02 00:57:58;;;;;;;5.22;1.23;;;1.20;96.90;;;;;;5079907;28;20544;-38
2022/04/02 01:00:25;;;;;;;4.13;1.38;;;1.20;96.90;;;;;;5076692;28;20196;-37
2022/04/02 01:02:52;;;;;;;3.55;0.93;;;1.20;96.70;;;;;;5083588;28;20131;-38
2022/04/02 01:05:18;;;;;;;4.90;1.40;;;1.20;96.50;;;;;;5080816;28;20052;-37
2022/04/02 01:07:43;;;;;;;3.80;1.17;;;1.20;96.50;;;;;;5082011;28;20094;-37
2022/04/02 01:10:09;;;;;;;5.90;0.80;;;1.20;96.40;;;;;;5083135;28;20064;-38
2022/04/02 01:12:35;;;;;;;3.72;1.15;;;1.20;96.20;;;;;;5082161;28;20041;-37
2022/04/02 01:15:00;;;;;;;3.92;1.23;;;1.20;96.10;;;;;;5079319;28;20524;-37
2022/04/02 01:17:26;;;;;;;7.32;1.25;;;1.20;95.90;;;;;;5085943;28;20075;-36
2022/04/02 01:19:53;;;;;;;8.50;1.27;;;1.20;96.00;;;;;;5085852;28;20562;-38
2022/04/02 01:22:19;;;;;;;3.20;1.10;;;1.10;95.90;;;;;;5083179;28;20466;-37
2022/04/02 01:24:44;;;;;;;8.15;1.20;;;1.20;95.80;;;;;;5077148;28;20039;-37
2022/04/02 01:27:10;;;;;;;8.43;1.35;;;1.20;95.50;;;;;;5077887;28;20044;-38
2022/04/02 01:29:36;;;;;;;3.05;1.00;;;1.20;95.50;;;;;;5081801;28;20117;-38
2022/04/02 01:32:02;;;;;;;5.43;1.00;;;1.20;95.30;;;;;;5080603;28;20546;-38
2022/04/02 01:34:32;;;;;;;2.55;0.82;;;1.20;95.30;;;;;;5082372;28;20039;-38
2022/04/02 01:36:57;;;;;;;3.65;0.90;;;1.20;95.20;;;;;;5080961;28;20127;-37
2022/04/02 01:39:23;;;;;;;3.33;1.02;;;1.20;95.20;;;;;;5081407;28;20111;-37
2022/04/02 01:41:48;;;;;;;3.35;1.02;;;1.20;95.10;;;;;;5083499;28;20507;-37
2022/04/02 01:44:15;;;;;;;5.03;1.40;;;1.20;95.00;;;;;;5080287;28;20038;-38
2022/04/02 01:46:40;;;;;;;3.63;1.02;;;1.20;95.00;;;;;;5083056;28;20051;-37
2022/04/02 01:49:06;;;;;;;6.43;1.40;;;1.20;94.90;;;;;;5078842;28;20033;-37
2022/04/02 01:51:32;;;;;;;2.38;1.05;;;1.20;95.20;;;;;;5082031;28;20429;-37
2022/04/02 01:53:58;;;;;;;4.57;1.17;;;1.20;95.00;;;;;;5085083;28;20082;-37
2022/04/02 01:56:24;;;;;;;5.50;1.33;;;1.20;95.00;;;;;;5082872;28;20361;-37
2022/04/02 01:58:49;;;;;;;6.40;1.08;;;1.20;94.80;;;;;;5080142;28;20036;-39
2022/04/02 02:01:15;;;;;;;4.22;1.20;;;1.20;94.80;;;;;;5086081;28;20040;-37
2022/04/02 02:03:40;;;;;;;5.18;1.27;;;1.20;94.90;;;;;;5085943;28;20048;-37
2022/04/02 02:06:07;;;;;;;4.85;1.10;;;1.20;95.10;;;;;;5081173;28;20048;-37
2022/04/02 02:08:33;;;;;;;6.88;1.20;;;1.20;95.10;;;;;;5081182;28;20123;-37
2022/04/02 02:10:59;;;;;;;7.55;1.38;;;1.20;95.30;;;;;;5082532;28;20043;-36
2022/04/02 02:13:24;;;;;;;4.03;1.00;;;1.10;95.30;;;;;;5087984;28;20039;-36
2022/04/02 02:15:50;;;;;;;6.28;1.20;;;1.10;95.30;;;;;;5083614;28;20040;-37
2022/04/02 02:18:16;;;;;;;5.85;2.38;;;1.10;95.50;;;;;;5082415;28;20193;-38
2022/04/02 02:20:43;;;;;;;3.67;0.90;;;1.10;95.60;;;;;;5085415;28;20485;-37
2022/04/02 02:23:09;;;;;;;7.65;1.60;;;1.10;95.70;;;;;;5088357;28;20040;-38
2022/04/02 02:25:34;;;;;;;8.48;1.38;;;1.10;95.70;;;;;;5087075;28;20035;-36
2022/04/02 02:28:00;;;;;;;5.50;1.35;;;1.10;95.80;;;;;;5087562;28;20096;-37
2022/04/02 02:30:26;;;;;;;8.23;1.67;;;1.10;95.90;;;;;;5084397;28;20123;-38
2022/04/02 02:35:49;;;;;;;7.32;1.27;;;1.10;95.90;;;;;;5087788;28;20043;-37
2022/04/02 02:35:49;;;;;;;3.65;1.17;;;1.10;96.00;;;;;;5081562;28;20040;-36
2022/04/02 02:38:15;;;;;;;4.00;1.30;;;1.10;96.00;;;;;;5087194;28;20040;-37
2022/04/02 02:40:41;;;;;;;3.58;1.17;;;1.10;96.10;;;;;;5087525;28;20071;-37
2022/04/02 02:43:08;;;;;;;5.05;1.27;;;1.10;96.20;;;;;;5083538;28;20132;-36
2022/04/02 02:45:34;;;;;;;5.90;1.30;;;1.00;96.00;;;;;;5083097;28;20339;-37
2022/04/02 02:48:01;;;;;;;4.47;1.20;;;1.00;96.20;;;;;;5077124;28;20456;-36
2022/04/02 02:50:27;;;;;;;3.78;1.20;;;1.00;96.30;;;;;;5086730;28;20425;-38
2022/04/02 02:52:54;;;;;;;6.45;1.25;;;1.00;96.30;;;;;;5086066;28;20043;-38
2022/04/02 02:55:20;;;;;;;4.93;1.83;;;1.00;96.40;;;;;;5088349;28;20036;-38
2022/04/02 02:57:46;;;;;;;4.70;1.15;;;1.00;96.60;;;;;;5083023;28;20120;-37
2022/04/02 03:00:14;;;;;;;6.10;1.60;;;1.00;96.50;;;;;;5085163;28;20499;-37
2022/04/02 03:02:40;;;;;;;3.58;1.25;;;1.00;96.60;;;;;;5088756;28;20083;-38
2022/04/02 03:05:10;;;;;;;4.38;1.27;;;1.00;96.80;;;;;;5083278;28;20040;-37
2022/04/02 03:07:49;;;;;;;3.22;1.20;;;1.00;96.80;;;;;;5081132;28;20478;-37
2022/04/02 03:10:17;;;;;;;4.97;1.48;;;1.00;96.90;;;;;;5083674;28;20093;-37
2022/04/02 03:12:43;;;;;;;4.07;1.50;;;1.00;97.30;;;;;;5082965;28;20043;-37
2022/04/02 03:15:09;;;;;;;6.35;1.60;;;1.00;97.20;;;;;;5087429;28;20040;-37
2022/04/02 03:17:35;;;;;;;3.55;1.15;;;0.90;97.60;;;;;;5086596;28;20119;-38
2022/04/02 03:20:01;;;;;;;3.17;1.08;;;0.90;97.60;;;;;;5088800;28;20127;-36
2022/04/02 03:22:27;;;;;;;3.75;1.38;;;0.90;97.60;;;;;;5081052;28;20450;-37
2022/04/02 03:24:54;;;;;;;6.55;1.50;;;0.90;97.90;;;;;;5086130;28;20039;-38
2022/04/02 03:27:20;;;;;;;3.95;1.05;;;0.90;98.10;;;;;;5081357;28;20429;-37
2022/04/02 03:29:45;;;;;;;8.27;1.50;;;0.90;98.20;;;;;;5084356;28;20100;-36
2022/04/02 03:32:11;;;;;;;8.00;1.38;;;0.80;98.40;;;;;;5084733;28;20063;-37
2022/04/02 03:34:37;;;;;;;7.07;1.52;;;0.80;98.50;;;;;;5087168;28;20067;-37
2022/04/02 03:37:03;;;;;;;6.35;1.63;;;0.80;98.80;;;;;;5086971;28;20043;-37
2022/04/02 03:39:28;;;;;;;7.20;1.63;;;0.80;99.00;;;;;;5087149;28;20049;-38
2022/04/02 03:41:54;;;;;;;13.30;1.52;;;0.80;99.20;;;;;;5076142;28;20374;-38
2022/04/02 03:44:19;;;;;;;6.07;1.85;;;0.80;99.30;;;;;;5085090;28;20085;-37
2022/04/02 03:49:29;;;;;;;5.55;1.60;;;0.70;99.50;;;;;;5086839;28;20040;-37
2022/04/02 03:51:55;;;;;;;4.25;1.58;;;0.70;99.60;;;;;;5078119;28;20484;-37
2022/04/02 03:54:21;;;;;;;4.70;1.33;;;0.70;99.80;;;;;;5084859;28;20115;-37
2022/04/02 03:56:47;;;;;;;7.60;2.15;;;0.60;99.70;;;;;;5086746;28;20045;-39
2022/04/02 03:59:13;;;;;;;4.30;0.82;;;0.60;99.90;;;;;;5082821;28;20405;-36
2022/04/02 04:01:39;;;;;;;2.55;1.00;;;0.60;99.90;;;;;;5084477;28;20112;-36
2022/04/02 04:04:05;;;;;;;5.00;1.30;;;0.60;99.90;;;;;;5083867;28;20163;-37
2022/04/02 04:06:34;;;;;;;5.35;1.30;;;0.50;99.90;;;;;;5081375;28;20385;-38
2022/04/02 04:09:00;;;;;;;2.10;0.80;;;0.50;99.90;;;;;;5085807;28;20040;-37
2022/04/02 04:11:26;;;;;;;3.58;1.23;;;0.50;99.90;;;;;;5079271;28;20028;-36
2022/04/02 04:13:53;;;;;;;4.93;1.05;;;0.50;99.90;;;;;;5080840;28;20047;-39
2022/04/02 04:16:19;;;;;;;3.92;1.30;;;0.50;99.90;;;;;;5085414;28;20035;-37
2022/04/02 04:18:45;;;;;;;2.92;1.05;;;0.50;99.90;;;;;;5086003;28;20507;-36
2022/04/02 04:21:14;;;;;;;3.58;1.40;;;0.40;99.90;;;;;;5080416;28;20047;-36
2022/04/02 04:23:39;;;;;;;3.80;1.10;;;0.40;99.90;;;;;;5077727;28;20044;-36
2022/04/02 04:26:05;;;;;;;2.67;0.98;;;0.50;99.90;;;;;;5081964;28;20059;-37
2022/04/02 04:28:31;;;;;;;5.68;1.35;;;0.40;99.90;;;;;;5080413;28;20059;-37
2022/04/02 04:30:56;;;;;;;4.45;1.45;;;0.40;99.90;;;;;;5081230;28;20125;-38
2022/04/02 04:33:22;;;;;;;3.25;1.10;;;0.40;99.90;;;;;;5081240;28;20059;-38
2022/04/02 04:35:47;;;;;;;6.28;1.20;;;0.40;99.90;;;;;;5085539;28;20484;-37
2022/04/02 04:38:13;;;;;;;3.03;1.00;;;0.40;99.90;;;;;;5084722;28;20040;-37
2022/04/02 04:40:39;;;;;;;5.03;1.40;;;0.50;99.90;;;;;;5081928;28;20522;-37
2022/04/02 04:43:05;;;;;;;5.15;1.30;;;0.40;99.90;;;;;;5086909;28;20112;-37
2022/04/02 04:45:30;;;;;;;5.20;1.48;;;0.40;99.90;;;;;;5085908;28;20107;-38
2022/04/02 04:47:56;;;;;;;6.13;1.30;;;0.50;99.90;;;;;;5086054;28;20108;-37
2022/04/02 04:50:21;;;;;;;4.72;1.17;;;0.50;99.90;;;;;;5085210;28;20090;-37
2022/04/02 04:52:47;;;;;;;7.32;1.45;;;0.50;99.90;;;;;;5087686;28;20040;-37
2022/04/02 04:55:13;;;;;;;6.60;1.30;;;0.50;99.90;;;;;;5076144;28;20740;-39
2022/04/02 04:57:38;;;;;;;5.32;1.30;;;0.50;99.90;;;;;;5081432;28;20404;-38
2022/04/02 05:00:05;;;;;;;7.32;1.63;;;0.50;99.90;;;;;;5085344;28;20032;-37
2022/04/02 05:02:31;;;;;;;6.45;1.45;;;0.50;99.90;;;;;;5079661;28;20048;-36
2022/04/02 05:04:57;;;;;;;4.97;1.17;;;0.40;99.90;;;;;;5085911;28;20174;-38
2022/04/02 05:07:24;;;;;;;3.30;0.82;;;0.50;99.90;;;;;;5081919;28;20036;-37
2022/04/02 05:09:50;;;;;;;4.47;1.45;;;0.40;99.90;;;;;;5082679;28;20064;-37
2022/04/02 05:12:16;;;;;;;8.23;1.20;;;0.40;99.90;;;;;;5082619;28;20083;-37
2022/04/02 05:14:42;;;;;;;4.43;1.10;;;0.40;99.90;;;;;;5081150;28;20044;-37
2022/04/02 05:17:07;;;;;;;4.15;1.42;;;0.40;99.90;;;;;;5077749;28;20033;-37
2022/04/02 05:19:33;;;;;;;5.57;1.70;;;0.40;99.90;;;;;;5080805;28;20052;-37
2022/04/02 05:22:00;;;;;;;8.82;1.35;;;0.40;99.90;;;;;;5080884;28;20068;-37
2022/04/02 05:24:26;;;;;;;5.72;1.25;;;0.40;99.90;;;;;;5082621;28;20052;-37
2022/04/02 05:26:52;;;;;;;5.35;1.30;;;0.40;99.90;;;;;;5084950;28;20551;-38
2022/04/02 05:29:17;;;;;;;6.22;1.10;;;0.40;99.90;;;;;;5084088;28;20036;-37
2022/04/02 05:31:43;;;;;;;4.30;1.10;;;0.40;99.90;;;;;;5085371;28;20062;-37
2022/04/02 05:34:10;;;;;;;5.63;1.50;;;0.40;99.90;;;;;;5080809;28;20488;-36
2022/04/02 05:36:38;;;;;;;3.67;1.20;;;0.40;99.90;;;;;;5087001;28;20040;-37
2022/04/02 05:39:04;;;;;;;3.40;1.05;;;0.40;99.90;;;;;;5081819;28;20047;-37
2022/04/02 05:41:30;;;;;;;9.02;1.50;;;0.40;99.90;;;;;;5086313;28;20121;-36
2022/04/02 05:43:55;;;;;;;3.20;1.20;;;0.40;99.90;;;;;;5084730;28;20235;-37
2022/04/02 05:46:22;;;;;;;4.25;0.90;;;0.40;99.90;;;;;;5087171;28;20039;-36
2022/04/02 05:48:48;;;;;;;6.10;1.83;;;0.50;99.90;;;;;;5085116;28;20040;-41
2022/04/02 05:51:13;;;;;;;4.97;1.08;;;0.50;99.90;;;;;;5087068;28;20043;-37
2022/04/02 05:53:39;;;;;;;3.38;1.08;;;0.50;99.90;;;;;;5089748;28;20093;-37
2022/04/02 05:56:05;;;;;;;2.92;1.45;;;0.60;99.90;;;;;;5091694;28;20032;-37
2022/04/02 05:58:31;;;;;;;5.40;1.25;;;0.60;99.90;;;;;;5083352;28;20032;-37
2022/04/02 06:00:56;;;;;;;5.38;0.90;;;0.60;99.90;;;;;;5089313;28;20261;-36
2022/04/02 06:03:22;;;;;;;5.78;1.35;;;0.70;99.90;;;;;;5085220;28;20055;-38
2022/04/02 06:05:49;;;;;;;3.72;1.00;;;0.80;99.90;;;;;;5082909;28;20404;-37
2022/04/02 06:08:18;;;;;;;3.88;1.10;;;0.80;99.90;;;;;;5085172;28;20396;-36
2022/04/02 06:10:45;;;;;;;5.25;1.02;;;0.90;99.90;;;;;;5089076;28;20071;-36
2022/04/02 06:13:11;;;;;;;3.92;1.05;;;0.90;99.90;;;;;;5088075;28;20342;-38
2022/04/02 06:15:37;;;;;;;7.25;1.67;;;1.00;99.90;;;;;;5087097;28;20489;-37
2022/04/02 06:18:03;;;;;;;6.05;1.40;;;1.10;99.90;;;;;;5089486;28;20500;-38
2022/04/02 06:20:29;;;;;;;5.35;1.33;;;1.10;99.90;;;;;;5079134;28;20036;-37
2022/04/02 06:22:55;;;;;;;5.75;1.08;;;1.20;99.90;;;;;;5089049;28;20059;-36
2022/04/02 06:25:21;;;;;;;6.75;1.60;;;1.20;99.90;;;;;;5086110;28;20480;-37
2022/04/02 06:27:48;;;;;;;4.35;1.25;;;1.30;99.90;;;;;;5086653;28;20246;-38
2022/04/02 06:30:17;;;;;;;2.60;1.00;;;1.30;99.90;;;;;;5079071;28;20032;-37
2022/04/02 06:32:43;;;;;;;4.30;1.10;;;1.30;99.90;;;;;;5082751;28;20502;-39
2022/04/02 06:35:10;;;;;;;5.72;1.13;;;1.40;99.90;;;;;;5082756;28;20036;-36
2022/04/02 06:37:38;;;;;;;4.35;1.25;;;1.40;99.90;;;;;;5082818;28;20040;-38
2022/04/02 06:40:05;;;;;;;3.85;1.40;;;1.50;99.90;;;;;;5088479;28;20047;-37
2022/04/02 06:42:31;;;;;;;3.90;1.17;;;1.50;99.90;;;;;;5086416;28;20516;-38
2022/04/02 06:44:57;;;;;;;9.75;1.17;;;1.60;99.90;;;;;;5079713;28;20052;-36
2022/04/02 06:47:27;;;;;;;5.78;1.20;;;1.60;99.90;;;;;;5086662;28;20036;-38
2022/04/02 06:49:53;;;;;;;5.13;1.00;;;1.70;99.90;;;;;;5085038;28;20032;-37
2022/04/02 06:52:19;;;;;;;2.17;0.85;;;1.70;99.90;;;;;;5086650;28;20036;-37
2022/04/02 06:54:44;;;;;;;3.17;1.02;;;1.80;99.90;;;;;;5086115;28;20047;-36
2022/04/02 06:57:10;;;;;;;4.55;1.40;;;1.90;99.90;;;;;;5086484;28;20039;-36
2022/04/02 06:59:36;;;;;;;3.80;1.05;;;2.00;99.90;;;;;;5091029;28;20066;-37
2022/04/02 07:02:03;;;;;;;4.65;0.95;;;2.00;99.90;;;;;;5084204;28;20148;-36
2022/04/02 07:04:28;;;;;;;7.30;1.60;;;2.10;99.90;;;;;;5082997;28;20063;-37
2022/04/02 07:06:54;;;;;;;3.25;1.00;;;2.20;99.90;;;;;;5088408;28;20040;-37
2022/04/02 07:09:19;;;;;;;2.38;0.95;;;2.30;99.90;;;;;;5088659;28;20036;-37
2022/04/02 07:11:45;;;;;;;5.13;1.05;;;2.40;99.90;;;;;;5082879;28;20036;-37
2022/04/02 07:14:14;;;;;;;5.43;1.33;;;2.40;99.90;;;;;;5086713;28;20441;-37
2022/04/02 07:16:40;;;;;;;2.95;1.30;;;2.50;99.90;;;;;;5085992;28;20040;-37
2022/04/02 07:19:06;;;;;;;3.38;1.33;;;2.60;99.90;;;;;;5085501;28;20078;-37
2022/04/02 07:21:33;;;;;;;4.72;1.33;;;2.70;99.90;;;;;;5089755;28;20056;-36
2022/04/02 07:23:59;;;;;;;2.78;1.08;;;2.80;99.90;;;;;;5082094;28;20135;-37
2022/04/02 07:26:26;;;;;;;3.88;1.05;;;2.80;99.90;;;;;;5088528;28;20046;-37
2022/04/02 07:28:53;;;;;;;7.75;2.65;;;2.90;99.90;;;;;;5084697;28;20340;-37
2022/04/02 07:31:19;;;;;;;4.05;1.42;;;3.00;99.90;;;;;;5080599;28;20070;-37
2022/04/02 07:33:44;;;;;;;4.28;1.00;;;3.00;99.60;;;;;;5087698;28;20453;-37
2022/04/02 07:36:38;;;;;;;3.28;1.00;;;3.10;99.30;;;;;;5084769;28;20059;-37
2022/04/02 07:39:15;;;;;;;3.88;1.30;;;3.10;99.50;;;;;;5078003;28;20093;-38
2022/04/02 07:42:20;;;;;;;3.67;1.50;;;3.20;98.70;;;;;;5085497;28;20128;-36
2022/04/02 07:44:58;;;;;;;2.80;1.00;;;3.30;98.10;;;;;;5080411;28;20036;-37
2022/04/02 07:47:28;;;;;;;4.97;1.08;;;3.30;98.10;;;;;;5088805;28;20040;-37
2022/04/02 07:50:00;;;;;;;5.60;1.00;;;3.40;98.30;;;;;;5086520;28;20054;-38
2022/04/02 07:52:27;;;;;;;4.38;1.00;;;3.40;98.10;;;;;;5084609;28;20143;-37
2022/04/02 07:54:56;;;;;;;5.28;1.00;;;3.50;98.00;;;;;;5084761;28;20040;-38
2022/04/02 07:57:39;;;;;;;3.30;1.17;;;3.50;97.90;;;;;;5084536;28;20098;-38
2022/04/02 08:00:07;;;;;;;4.57;1.00;;;3.60;98.10;;;;;;5083695;28;20063;-39
2022/04/02 08:02:38;;;;;;;6.93;1.25;;;3.60;98.00;;;;;;5080364;28;20040;-37
2022/04/02 08:05:12;;;;;;;2.87;0.87;;;3.70;97.80;;;;;;5084235;28;20044;-38
2022/04/02 08:07:43;;;;;;;2.60;1.05;;;3.80;97.00;;;;;;5080605;28;20353;-37
2022/04/02 08:10:12;;;;;;;4.95;1.10;;;3.90;96.40;;;;;;5083630;28;20368;-37
2022/04/02 08:12:40;;;;;;;2.40;0.85;;;4.00;95.40;;;;;;5081448;28;20558;-37
2022/04/02 08:15:11;;;;;;;4.97;1.17;;;4.10;95.20;;;;;;5077899;28;20036;-40
2022/04/02 08:17:43;;;;;;;3.30;0.82;;;4.20;94.30;;;;;;5078231;28;20032;-39
2022/04/02 08:20:10;;;;;;;5.03;1.25;;;4.30;93.50;;;;;;5097458;28;20028;-38
2022/04/02 08:22:36;;;;;;;3.45;1.10;;;4.30;93.60;;;;;;5082470;28;20040;-44
2022/04/02 08:25:03;;;;;;;3.80;1.25;;;4.40;93.00;;;;;;5081781;28;20393;-44
2022/04/02 08:27:35;;;;;;;3.55;1.17;;;4.50;92.10;;;;;;5081622;28;20512;-43
2022/04/02 08:30:07;;;;;;;2.88;1.10;;;4.60;91.10;;;;;;5083174;28;20085;-47
2022/04/02 08:33:07;;;;;;;2.28;1.20;;;4.70;91.20;;;;;;5084920;28;20916;-43
2022/04/02 08:36:10;;;;;;;2.90;0.90;;;4.70;88.90;;;;;;5078941;28;20440;-46
2022/04/02 08:39:01;;;;;;;4.35;1.30;;;4.80;88.90;;;;;;5080877;28;20044;-47
2022/04/02 08:42:18;;;;;;;2.53;1.15;;;4.80;87.90;;;;;;5081653;28;21388;-46
2022/04/02 08:45:03;;;;;;;1.73;1.00;;;4.80;82.30;;;;;;5085120;28;20099;-47
2022/04/02 08:47:29;;;;;;;3.38;0.98;;;4.80;84.10;;;;;;5078888;28;20101;-42
2022/04/02 08:50:07;;;;;;;3.03;1.17;;;4.80;86.20;;;;;;5084374;28;20028;-46
2022/04/02 08:52:52;;;;;;;4.82;1.25;;;4.90;85.40;;;;;;5086618;28;20115;-49
2022/04/02 08:55:34;;;;;;;2.47;1.10;;;4.90;85.60;;;;;;5078406;28;20047;-47
2022/04/02 08:58:07;;;;;;;2.00;1.00;;;4.90;83.40;;;;;;5084334;28;20047;-46
2022/04/02 09:00:40;;;;;;;3.10;1.05;;;4.80;83.30;;;;;;5083251;28;20044;-47
2022/04/02 09:03:24;;;;;;;3.58;0.85;;;4.80;83.10;;;;;;5082023;28;20051;-48
2022/04/02 09:06:11;;;;;;;3.63;1.25;;;4.80;83.70;;;;;;5082905;28;20040;-51
2022/04/02 09:08:43;;;;;;;3.20;0.80;;;4.80;84.40;;;;;;5084322;28;20033;-46
2022/04/02 09:11:11;;;;;;;3.80;0.87;;;4.70;86.00;;;;;;5080520;28;20093;-49
2022/04/02 09:13:49;;;;;;;5.78;1.00;;;4.70;85.40;;;;;;5077410;28;20055;-46
2022/04/02 09:16:27;;;;;;;3.28;0.95;;;4.60;86.10;;;;;;5078178;28;20627;-44
2022/04/02 09:19:21;;;;;;;3.78;1.23;;;4.50;86.10;;;;;;5082370;28;20511;-45
2022/04/02 09:22:05;;;;;;;4.28;0.90;;;4.50;86.10;;;;;;5084357;28;20113;-47
2022/04/02 09:24:40;;;;;;;2.13;0.85;;;4.50;86.40;;;;;;5086882;28;20499;-47
2022/04/02 09:27:29;;;;;;;8.05;1.33;;;4.40;87.20;;;;;;5085108;28;20488;-43
2022/04/02 09:30:04;;;;;;;2.72;0.77;;;4.40;86.80;;;;;;5082693;28;20051;-46
2022/04/02 09:33:06;;;;;;;6.60;1.65;;;4.40;86.00;;;;;;5087526;28;20043;-43
2022/04/02 09:35:34;;;;;;;3.83;1.17;;;4.40;86.30;;;;;;5084785;28;20036;-46
2022/04/02 09:38:30;;;;;;;5.32;1.30;;;4.30;86.90;;;;;;5085301;28;20044;-46
2022/04/02 09:41:15;;;;;;;3.45;0.88;;;4.30;86.90;;;;;;5087722;28;20054;-51
2022/04/02 09:43:59;;;;;;;2.88;0.80;;;4.20;86.10;;;;;;5088784;28;20040;-46
2022/04/02 09:46:41;;;;;;;2.10;0.73;;;4.20;86.60;;;;;;5084270;28;20039;-44
2022/04/02 09:49:27;;;;;;;3.70;0.68;;;4.20;87.90;;;;;;5082864;28;20036;-46
2022/04/02 09:52:05;;;;;;;3.55;1.00;;;4.20;88.20;;;;;;5086261;28;20040;-47
2022/04/02 09:54:44;;;;;;;1.88;0.95;;;4.30;88.20;;;;;;5087746;28;20091;-44
2022/04/02 09:57:22;;;;;;;3.47;0.65;;;4.40;87.30;;;;;;5081982;28;20185;-49
2022/04/02 10:00:03;;;;;;;3.20;1.35;;;4.50;87.30;;;;;;5087628;28;20032;-49
2022/04/02 10:02:44;;;;;;;5.85;1.17;;;4.60;85.80;;;;;;5085934;28;20101;-49
2022/04/02 10:05:14;;;;;;;1.95;0.70;;;4.70;85.10;;;;;;5083238;28;20057;-45
2022/04/02 10:08:05;;;;;;;3.42;0.90;;;4.80;84.70;;;;;;5088609;28;20378;-46
2022/04/02 10:10:31;;;;;;;2.50;0.80;;;4.90;84.80;;;;;;5083785;28;20048;-48
2022/04/02 10:12:57;;;;;;;3.42;0.52;;;5.00;83.60;;;;;;5085533;28;20054;-47
2022/04/02 10:15:24;;;;;;;4.10;0.80;;;5.10;81.40;;;;;;5084608;28;20043;-46
2022/04/02 10:17:52;;;;;;;4.68;1.00;;;5.10;80.30;;;;;;5083552;28;20385;-47
2022/04/02 10:20:28;;;;;;;3.00;0.80;;;5.20;80.60;;;;;;5087885;28;20043;-45
2022/04/02 10:23:19;;;;;;;1.40;0.60;;;5.30;80.60;;;;;;5088743;28;20032;-50
2022/04/02 10:26:07;;;;;;;2.25;0.77;;;5.30;80.10;;;;;;5087133;28;20663;-47
2022/04/02 10:28:38;;;;;;;1.95;0.60;;;5.40;79.50;;;;;;5087185;28;20078;-49
2022/04/02 10:31:06;;;;;;;2.67;0.70;;;5.60;79.30;;;;;;5081896;28;20048;-48
2022/04/02 10:33:37;;;;;;;2.83;0.70;;;5.90;79.00;;;;;;5085421;28;20123;-47
2022/04/02 10:36:07;;;;;;;2.40;0.75;;;6.20;76.70;;;;;;5083206;28;20842;-45
2022/04/02 10:38:44;;;;;;;1.83;0.60;;;6.40;76.10;;;;;;5089538;28;20476;-44
2022/04/02 10:41:17;;;;;;;2.85;0.50;;;6.40;72.70;;;;;;5087421;28;20119;-48
2022/04/02 10:44:02;;;;;;;3.70;0.60;;;6.40;68.80;;;;;;5089916;28;20036;-48
2022/04/02 10:46:31;;;;;;;2.85;0.43;;;6.40;66.20;;;;;;5088838;28;20408;-50
2022/04/02 10:49:05;;;;;;;3.20;0.40;;;6.40;66.70;;;;;;5085309;28;20032;-49
2022/04/02 10:51:33;;;;;;;2.47;0.70;;;6.30;65.70;;;;;;5084162;28;20123;-46
2022/04/02 10:54:07;;;;;;;4.57;0.40;;;6.30;64.90;;;;;;5086959;28;20556;-49
2022/04/02 10:56:53;;;;;;;3.55;0.55;;;6.30;65.10;;;;;;5086288;28;20047;-48
2022/04/02 10:59:21;;;;;;;1.38;0.40;;;6.20;64.80;;;;;;5085457;28;20514;-45
2022/04/02 11:01:52;;;;;;;1.52;0.40;;;6.30;64.20;;;;;;5083337;28;20089;-50
2022/04/02 11:04:48;;;;;;;1.67;0.50;;;6.30;64.40;;;;;;5068728;28;20102;-47
2022/04/02 11:07:29;;;;;;;3.28;0.98;;;6.30;64.30;;;;;;5083278;28;20043;-51
2022/04/02 11:09:58;;;;;;;2.17;0.50;;;6.40;64.40;;;;;;5084670;28;20042;-40
2022/04/02 11:12:37;;;;;;;1.55;0.50;;;6.40;64.70;;;;;;5078325;28;20052;-46
2022/04/02 11:15:20;;;;;;;9.32;1.60;;;6.50;64.90;;;;;;5080145;28;20117;-46
2022/04/02 11:17:52;;;;;;;2.60;0.60;;;6.90;63.80;;;;;;5084541;28;20032;-48
2022/04/02 11:20:23;;;;;;;1.50;0.60;;;7.40;63.50;;;;;;5082363;28;20032;-46
2022/04/02 11:22:52;;;;;;;1.77;0.40;;;7.90;62.30;;;;;;5081155;28;20028;-44
2022/04/02 11:25:31;;;;;;;2.40;0.60;;;8.30;58.80;;;;;;5078951;28;20596;-46
2022/04/02 11:28:08;;;;;;;0.95;0.40;;;8.60;58.60;;;;;;5081787;28;20032;-46
2022/04/02 11:30:36;;;;;;;4.00;0.50;;;8.80;57.00;;;;;;5083513;28;20543;-44
2022/04/02 11:33:07;;;;;;;1.70;0.70;;;8.80;55.00;;;;;;5083574;28;20039;-44
2022/04/02 11:35:44;;;;;;;4.53;0.65;;;8.30;57.20;;;;;;5078310;28;20511;-45
2022/04/02 11:38:37;;;;;;;2.38;0.90;;;7.80;60.20;;;;;;5081382;28;20044;-45
2022/04/02 11:41:02;;;;;;;3.53;0.77;;;7.20;62.80;;;;;;5085240;28;20088;-48
2022/04/02 11:43:38;;;;;;;2.60;0.75;;;6.80;64.90;;;;;;5084548;28;20048;-47
2022/04/02 11:46:09;;;;;;;2.83;0.60;;;6.50;67.70;;;;;;5087599;28;20031;-47
2022/04/02 11:48:56;;;;;;;1.73;0.40;;;6.50;68.30;;;;;;5080130;28;20501;-45
2022/04/02 11:51:25;;;;;;;3.17;0.60;;;6.50;66.80;;;;;;5081396;28;20047;-45
2022/04/02 11:53:51;;;;;;;2.17;0.45;;;6.60;66.80;;;;;;5086779;28;20563;-46
2022/04/02 11:56:32;;;;;;;5.45;0.60;;;6.70;66.30;;;;;;5085217;28;20048;-47
2022/04/02 11:59:03;;;;;;;2.25;0.43;;;6.90;64.70;;;;;;5080155;28;20349;-46
2022/04/02 12:01:50;;;;;;;1.27;0.43;;;7.10;62.60;;;;;;5075334;28;20117;-49
2022/04/02 12:04:22;;;;;;;1.67;0.60;;;7.30;59.50;;;;;;5087683;28;20048;-45
2022/04/02 12:06:49;;;;;;;1.23;0.50;;;7.60;59.30;;;;;;5075894;28;20044;-44
2022/04/02 12:09:19;;;;;;;1.88;0.43;;;7.90;58.00;;;;;;5080001;28;20051;-45
2022/04/02 12:12:05;;;;;;;1.08;0.40;;;8.20;56.70;;;;;;5085700;28;20036;-46
2022/04/02 12:14:41;;;;;;;1.23;0.43;;;8.50;55.10;;;;;;5085750;28;20092;-46
2022/04/02 12:17:12;;;;;;;1.48;0.40;;;8.70;53.70;;;;;;5082198;28;20590;-44
2022/04/02 12:19:39;;;;;;;2.72;0.60;;;9.00;52.60;;;;;;5084085;28;20492;-46
2022/04/02 12:22:25;;;;;;;1.05;0.35;;;9.30;52.40;;;;;;5083372;28;20244;-45
2022/04/02 12:24:53;;;;;;;1.70;0.40;;;9.60;51.10;;;;;;5081616;28;20475;-44
2022/04/02 12:27:26;;;;;;;0.98;0.40;;;9.60;50.60;;;;;;5087452;28;20071;-46
2022/04/02 12:29:53;;;;;;;1.92;0.55;;;9.50;50.20;;;;;;5088055;28;20040;-47
2022/04/02 12:32:37;;;;;;;1.25;0.40;;;9.10;50.70;;;;;;5086171;28;20051;-50
2022/04/02 12:35:07;;;;;;;1.33;0.30;;;8.70;51.30;;;;;;5080886;28;20036;-46
2022/04/02 12:37:46;;;;;;;1.02;0.50;;;8.30;51.80;;;;;;5085735;28;20123;-49
2022/04/02 12:40:22;;;;;;;2.28;0.60;;;8.00;52.10;;;;;;5087316;28;20163;-48
2022/04/02 12:42:50;;;;;;;3.70;0.57;;;7.90;52.90;;;;;;5081273;28;20031;-47
2022/04/02 12:45:21;;;;;;;2.08;0.70;;;7.90;53.30;;;;;;5081952;28;20070;-44
2022/04/02 12:48:17;;;;;;;1.73;0.60;;;8.00;54.40;;;;;;5084530;28;20037;-45
2022/04/02 12:51:02;;;;;;;2.83;0.52;;;8.20;54.40;;;;;;5078126;28;20063;-47
2022/04/02 12:53:30;;;;;;;1.92;0.43;;;8.40;54.00;;;;;;5079529;28;20039;-45
2022/04/02 12:55:58;;;;;;;2.42;0.80;;;8.50;53.70;;;;;;5080136;28;20036;-49
2022/04/02 12:58:50;;;;;;;2.45;0.63;;;8.70;53.90;;;;;;5083388;28;20093;-48
2022/04/02 13:01:25;;;;;;;1.83;0.68;;;8.80;52.60;;;;;;5080276;28;20075;-48
2022/04/02 13:03:54;;;;;;;5.50;0.60;;;8.70;53.00;;;;;;5085592;28;20060;-47
2022/04/02 13:06:22;;;;;;;1.35;0.50;;;8.60;53.20;;;;;;5102269;28;20313;-47
2022/04/02 13:09:01;;;;;;;2.13;0.68;;;8.50;53.90;;;;;;5100742;28;20752;-49
2022/04/02 13:11:45;;;;;;;2.05;0.60;;;8.30;53.40;;;;;;5103232;28;20044;-50
2022/04/02 13:14:25;;;;;;;3.53;0.70;;;8.20;54.70;;;;;;5103219;28;20040;-46
2022/04/02 13:16:54;;;;;;;2.58;0.60;;;8.10;54.80;;;;;;5096036;28;20396;-48
2022/04/02 13:22:13;;;;;;;2.75;0.70;;;7.80;56.80;;;;;;5102899;28;20070;-45